FDX125 VHHH-ZSPD
Flight info
| Callsign | FDX125 |
|---|---|
| Flight time | N/A |
| Altitude | 35000 |
| Route | LEKEN V601 DOTMI/K0861S1065 A470 LJG B221 SHZ W58 BK BK83A |
| Aircraft | B737/M-SDE2E3FGHIRWXY/LB1 |
Departure
| Time | 2026-05-04 16:02 |
|---|---|
| Airport | Hong Kong International Airport (VHHH) |
Arrival
| Time | N/A |
|---|---|
| Airport | Shanghai Pudong International Airport (ZSPD) |
| Time | Latitude | Longitude | Altitude | Speed | Heading |
|---|---|---|---|---|---|
| 2026-05-04 15:37 | 22.31205 | 113.92417 | 34 ft | 0 kts | 295° |
| 2026-05-04 15:51 | 22.31203 | 113.92422 | 34 ft | 2 kts | 296° |
| 2026-05-04 15:52 | 22.31194 | 113.92440 | 32 ft | 3 kts | 300° |
| 2026-05-04 15:52 | 22.31183 | 113.92459 | 33 ft | 3 kts | 308° |
| 2026-05-04 15:52 | 22.31170 | 113.92475 | 33 ft | 3 kts | 322° |
| 2026-05-04 15:52 | 22.31154 | 113.92485 | 34 ft | 3 kts | 355° |
| 2026-05-04 15:53 | 22.31142 | 113.92484 | 34 ft | 1 kts | 26° |
| 2026-05-04 15:53 | 22.31139 | 113.92482 | 34 ft | 0 kts | 26° |
| 2026-05-04 15:55 | 22.31140 | 113.92483 | 34 ft | 1 kts | 26° |
| 2026-05-04 15:55 | 22.31155 | 113.92491 | 34 ft | 4 kts | 26° |
| 2026-05-04 15:55 | 22.31192 | 113.92510 | 34 ft | 8 kts | 25° |
| 2026-05-04 15:55 | 22.31250 | 113.92495 | 33 ft | 11 kts | 311° |
| 2026-05-04 15:56 | 22.31289 | 113.92413 | 33 ft | 14 kts | 296° |
| 2026-05-04 15:56 | 22.31337 | 113.92306 | 34 ft | 17 kts | 296° |
| 2026-05-04 15:56 | 22.31394 | 113.92179 | 34 ft | 20 kts | 295° |
| 2026-05-04 15:56 | 22.31461 | 113.92080 | 34 ft | 16 kts | 338° |
| 2026-05-04 15:57 | 22.31576 | 113.92037 | 34 ft | 19 kts | 339° |
| 2026-05-04 15:57 | 22.31594 | 113.91912 | 34 ft | 21 kts | 250° |
| 2026-05-04 15:57 | 22.31545 | 113.91757 | 34 ft | 23 kts | 249° |
| 2026-05-04 15:57 | 22.31491 | 113.91592 | 34 ft | 24 kts | 251° |
| 2026-05-04 15:58 | 22.31439 | 113.91431 | 33 ft | 22 kts | 251° |
| 2026-05-04 15:58 | 22.31388 | 113.91273 | 34 ft | 23 kts | 251° |
| 2026-05-04 15:58 | 22.31332 | 113.91099 | 34 ft | 26 kts | 251° |
| 2026-05-04 15:58 | 22.31272 | 113.90913 | 34 ft | 26 kts | 251° |
| 2026-05-04 15:59 | 22.31214 | 113.90738 | 34 ft | 24 kts | 251° |
| 2026-05-04 15:59 | 22.31160 | 113.90568 | 34 ft | 25 kts | 251° |
| 2026-05-04 15:59 | 22.31101 | 113.90386 | 34 ft | 25 kts | 250° |
| 2026-05-04 15:59 | 22.31045 | 113.90211 | 34 ft | 24 kts | 251° |
| 2026-05-04 16:00 | 22.30987 | 113.90031 | 35 ft | 26 kts | 250° |
| 2026-05-04 16:00 | 22.30952 | 113.89924 | 32 ft | 12 kts | 252° |
| 2026-05-04 16:00 | 22.30938 | 113.89824 | 35 ft | 15 kts | 300° |
| 2026-05-04 16:00 | 22.31034 | 113.89773 | 35 ft | 17 kts | 340° |
| 2026-05-04 16:01 | 22.31110 | 113.89843 | 35 ft | 16 kts | 72° |
| 2026-05-04 16:01 | 22.31118 | 113.89869 | 33 ft | 9 kts | 70° |
| 2026-05-04 16:01 | 22.31202 | 113.90131 | 32 ft | 70 kts | 70° |
| 2026-05-04 16:01 | 22.31430 | 113.90845 | 35 ft | 128 kts | 73° |
| 2026-05-04 16:02 | 22.31748 | 113.91889 | 130 ft | 160 kts | 74° |
| 2026-05-04 16:02 | 22.32132 | 113.93097 | 528 ft | 179 kts | 74° |
| 2026-05-04 16:02 | 22.32885 | 113.95470 | 1864 ft | 155 kts | 73° |
| 2026-05-04 16:03 | 22.33247 | 113.96561 | 2227 ft | 157 kts | 72° |
| 2026-05-04 16:03 | 22.33516 | 113.97695 | 2490 ft | 157 kts | 82° |
| 2026-05-04 16:03 | 22.33706 | 113.98875 | 2778 ft | 161 kts | 83° |
| 2026-05-04 16:03 | 22.33898 | 114.00094 | 3246 ft | 176 kts | 83° |
| 2026-05-04 16:04 | 22.34124 | 114.01538 | 3545 ft | 212 kts | 83° |
| 2026-05-04 16:04 | 22.34257 | 114.04942 | 4266 ft | 240 kts | 108° |
| 2026-05-04 16:04 | 22.33556 | 114.06590 | 4910 ft | 245 kts | 128° |
| 2026-05-04 16:05 | 22.32371 | 114.07867 | 5716 ft | 239 kts | 151° |
| 2026-05-04 16:05 | 22.30850 | 114.08586 | 6409 ft | 241 kts | 171° |
| 2026-05-04 16:05 | 22.27507 | 114.08729 | 7928 ft | 245 kts | 184° |
| 2026-05-04 16:06 | 22.25799 | 114.08721 | 8811 ft | 246 kts | 184° |
| 2026-05-04 16:06 | 22.20798 | 114.08650 | 10363 ft | 290 kts | 185° |
| 2026-05-04 16:07 | 22.17960 | 114.08763 | 10675 ft | 333 kts | 171° |
| 2026-05-04 16:07 | 22.13064 | 114.14643 | 12496 ft | 380 kts | 118° |
| 2026-05-04 16:08 | 22.12309 | 114.16357 | 13021 ft | 384 kts | 118° |
| 2026-05-04 16:08 | 22.08661 | 114.24296 | 15300 ft | 401 kts | 121° |
| 2026-05-04 16:09 | 22.04886 | 114.28574 | 16641 ft | 397 kts | 149° |
| 2026-05-04 16:09 | 22.00322 | 114.32045 | 17921 ft | 407 kts | 148° |
| 2026-05-04 16:10 | 21.96608 | 114.36717 | 19009 ft | 430 kts | 113° |
| 2026-05-04 16:11 | 21.96245 | 114.46457 | 20648 ft | 445 kts | 87° |
| 2026-05-04 16:11 | 21.96416 | 114.49807 | 21115 ft | 450 kts | 88° |
| 2026-05-04 16:12 | 21.95242 | 114.59846 | 22595 ft | 457 kts | 106° |
| 2026-05-04 16:12 | 21.92941 | 114.69996 | 23874 ft | 469 kts | 105° |
| 2026-05-04 16:13 | 21.91460 | 114.76892 | 24599 ft | 476 kts | 105° |
| 2026-05-04 16:13 | 21.89969 | 114.83885 | 25289 ft | 482 kts | 105° |
| 2026-05-04 16:14 | 21.88456 | 114.90947 | 26141 ft | 484 kts | 105° |
| 2026-05-04 16:14 | 21.86920 | 114.98103 | 26607 ft | 496 kts | 105° |
| 2026-05-04 16:15 | 21.86710 | 115.09209 | 27536 ft | 507 kts | 71° |
| 2026-05-04 16:16 | 21.90241 | 115.15652 | 28291 ft | 497 kts | 39° |
| 2026-05-04 16:16 | 21.99125 | 115.21104 | 29134 ft | 497 kts | 27° |
| 2026-05-04 16:17 | 22.04661 | 115.25610 | 29963 ft | 507 kts | 38° |
| 2026-05-04 16:18 | 22.12305 | 115.33704 | 30681 ft | 518 kts | 41° |
| 2026-05-04 16:18 | 22.14850 | 115.36457 | 30915 ft | 520 kts | 41° |
| 2026-05-04 16:19 | 22.22622 | 115.44728 | 31716 ft | 523 kts | 40° |
| 2026-05-04 16:19 | 22.27811 | 115.50190 | 32463 ft | 521 kts | 40° |
| 2026-05-04 16:20 | 22.35603 | 115.58390 | 33492 ft | 520 kts | 40° |
| 2026-05-04 16:20 | 22.40765 | 115.63838 | 34257 ft | 518 kts | 40° |
| 2026-05-04 16:21 | 22.48485 | 115.71998 | 35073 ft | 518 kts | 40° |
| 2026-05-04 16:22 | 22.53647 | 115.77460 | 35066 ft | 518 kts | 40° |
| 2026-05-04 16:23 | 22.68967 | 115.93713 | 35071 ft | 512 kts | 40° |
| 2026-05-04 16:25 | 22.84258 | 116.09982 | 35083 ft | 514 kts | 40° |
| 2026-05-04 16:26 | 23.02240 | 116.29188 | 34734 ft | 522 kts | 40° |
| 2026-05-04 16:27 | 23.07388 | 116.34703 | 34296 ft | 522 kts | 40° |
| 2026-05-04 16:28 | 23.15182 | 116.43059 | 33573 ft | 527 kts | 40° |
| 2026-05-04 16:28 | 23.23006 | 116.51465 | 32828 ft | 527 kts | 40° |
| 2026-05-04 16:29 | 23.33459 | 116.62718 | 31879 ft | 527 kts | 40° |
| 2026-05-04 16:30 | 23.41274 | 116.71147 | 31172 ft | 527 kts | 40° |
| 2026-05-04 16:31 | 23.46484 | 116.76775 | 30721 ft | 528 kts | 40° |
| 2026-05-04 16:31 | 23.54328 | 116.85259 | 29533 ft | 532 kts | 41° |
| 2026-05-04 16:32 | 23.62012 | 116.93598 | 26609 ft | 500 kts | 41° |
| 2026-05-04 16:33 | 23.66827 | 116.98830 | 25126 ft | 479 kts | 41° |
| 2026-05-04 16:33 | 23.71517 | 117.03919 | 23651 ft | 483 kts | 42° |
| 2026-05-04 16:34 | 23.76324 | 117.09136 | 21945 ft | 485 kts | 42° |
| 2026-05-04 16:34 | 23.78699 | 117.11723 | 21159 ft | 480 kts | 42° |
| 2026-05-04 16:35 | 23.85684 | 117.19339 | 18816 ft | 467 kts | 42° |
| 2026-05-04 16:35 | 23.92483 | 117.26767 | 16364 ft | 453 kts | 43° |
| 2026-05-04 16:36 | 23.94698 | 117.29187 | 15610 ft | 447 kts | 43° |
| 2026-05-04 16:36 | 23.99084 | 117.33905 | 14095 ft | 439 kts | 42° |
| 2026-05-04 16:37 | 24.03369 | 117.38637 | 12492 ft | 429 kts | 43° |
| 2026-05-04 16:37 | 24.05456 | 117.40944 | 11767 ft | 424 kts | 43° |
| 2026-05-04 16:37 | 24.09529 | 117.45436 | 10736 ft | 403 kts | 43° |
| 2026-05-04 16:38 | 24.13315 | 117.49569 | 10392 ft | 367 kts | 43° |
| 2026-05-04 16:39 | 24.18128 | 117.55230 | 10009 ft | 310 kts | 45° |
| 2026-05-04 16:39 | 24.20929 | 117.58609 | 9387 ft | 295 kts | 45° |
| 2026-05-04 16:40 | 24.23666 | 117.61926 | 8709 ft | 292 kts | 45° |
| 2026-05-04 16:40 | 24.26388 | 117.65184 | 8051 ft | 289 kts | 45° |
| 2026-05-04 16:41 | 24.29098 | 117.68420 | 7314 ft | 288 kts | 46° |
| 2026-05-04 16:41 | 24.32659 | 117.72690 | 6460 ft | 283 kts | 47° |
| 2026-05-04 16:42 | 24.36577 | 117.77398 | 5707 ft | 267 kts | 46° |
| 2026-05-04 16:43 | 24.38979 | 117.80288 | 5498 ft | 246 kts | 48° |
| 2026-05-04 16:43 | 24.39994 | 117.83680 | 5149 ft | 234 kts | 85° |
| 2026-05-04 16:43 | 24.40117 | 117.85446 | 4921 ft | 230 kts | 85° |
| 2026-05-04 16:44 | 24.40581 | 117.91856 | 4123 ft | 192 kts | 85° |
| 2026-05-04 16:45 | 24.41292 | 117.94457 | 3744 ft | 171 kts | 52° |
| 2026-05-04 16:46 | 24.42926 | 117.96742 | 3278 ft | 161 kts | 52° |
| 2026-05-04 16:47 | 24.43698 | 117.97820 | 3063 ft | 160 kts | 52° |
| 2026-05-04 16:47 | 24.45092 | 117.99753 | 2742 ft | 163 kts | 51° |
| 2026-05-04 16:48 | 24.47033 | 118.02457 | 2121 ft | 131 kts | 51° |
| 2026-05-04 16:48 | 24.47587 | 118.03231 | 1970 ft | 129 kts | 51° |
| 2026-05-04 16:49 | 24.48706 | 118.04794 | 1635 ft | 130 kts | 51° |
| 2026-05-04 16:49 | 24.49830 | 118.06363 | 1287 ft | 130 kts | 51° |
| 2026-05-04 16:50 | 24.50878 | 118.07826 | 973 ft | 120 kts | 51° |
| 2026-05-04 16:50 | 24.51945 | 118.09308 | 607 ft | 125 kts | 50° |
| 2026-05-04 16:51 | 24.53016 | 118.10809 | 306 ft | 130 kts | 51° |
| 2026-05-04 16:51 | 24.53565 | 118.11578 | 99 ft | 126 kts | 50° |
| 2026-05-04 16:51 | 24.54471 | 118.12844 | 49 ft | 67 kts | 52° |
| 2026-05-04 16:52 | 24.54712 | 118.13318 | 50 ft | 21 kts | 81° |
| 2026-05-04 16:52 | 24.54657 | 118.13394 | 49 ft | 16 kts | 210° |
| 2026-05-04 16:53 | 24.54528 | 118.13214 | 51 ft | 14 kts | 229° |
| 2026-05-04 16:53 | 24.54354 | 118.12974 | 51 ft | 13 kts | 231° |
| 2026-05-04 16:54 | 24.54295 | 118.12892 | 48 ft | 14 kts | 235° |
| 2026-05-04 16:55 | 24.53977 | 118.12701 | 54 ft | 17 kts | 232° |
| 2026-05-04 16:55 | 24.53840 | 118.12623 | 53 ft | 9 kts | 144° |
| 2026-05-04 16:56 | 24.53822 | 118.12637 | 54 ft | 0 kts | 143° |